sensor_id;sensor_type;location;lat;lon;timestamp;noise_LAeq;noise_LA_min;noise_LA_max;noise_LA01;noise_LA95
72805;Laerm;60920;48.748;19.142;2023-08-06T00:00:44;33.45;31.60;45.79;;
72805;Laerm;60920;48.748;19.142;2023-08-06T00:03:09;35.43;31.22;47.86;;
72805;Laerm;60920;48.748;19.142;2023-08-06T00:05:35;37.13;31.74;47.85;;
72805;Laerm;60920;48.748;19.142;2023-08-06T00:08:00;38.92;31.96;48.73;;
72805;Laerm;60920;48.748;19.142;2023-08-06T00:10:25;38.42;31.82;48.32;;
72805;Laerm;60920;48.748;19.142;2023-08-06T00:12:51;35.55;31.61;48.37;;
72805;Laerm;60920;48.748;19.142;2023-08-06T00:15:16;34.48;31.79;45.56;;
72805;Laerm;60920;48.748;19.142;2023-08-06T00:17:41;35.27;31.76;47.10;;
72805;Laerm;60920;48.748;19.142;2023-08-06T00:20:07;34.18;31.69;46.27;;
72805;Laerm;60920;48.748;19.142;2023-08-06T00:22:33;35.43;31.83;48.29;;
72805;Laerm;60920;48.748;19.142;2023-08-06T00:24:58;34.85;31.81;45.53;;
72805;Laerm;60920;48.748;19.142;2023-08-06T00:27:24;34.21;31.97;46.43;;
72805;Laerm;60920;48.748;19.142;2023-08-06T00:29:49;35.10;31.71;46.99;;
72805;Laerm;60920;48.748;19.142;2023-08-06T00:32:14;34.74;31.81;47.21;;
72805;Laerm;60920;48.748;19.142;2023-08-06T00:34:40;34.12;31.79;46.89;;
72805;Laerm;60920;48.748;19.142;2023-08-06T00:37:05;34.42;31.31;46.11;;
72805;Laerm;60920;48.748;19.142;2023-08-06T00:39:30;38.67;31.65;48.09;;
72805;Laerm;60920;48.748;19.142;2023-08-06T00:41:56;38.82;31.72;47.08;;
72805;Laerm;60920;48.748;19.142;2023-08-06T00:44:21;35.05;31.27;46.48;;
72805;Laerm;60920;48.748;19.142;2023-08-06T00:46:46;37.78;31.50;47.75;;
72805;Laerm;60920;48.748;19.142;2023-08-06T00:49:12;35.43;31.51;46.59;;
72805;Laerm;60920;48.748;19.142;2023-08-06T00:51:37;33.32;31.59;43.21;;
72805;Laerm;60920;48.748;19.142;2023-08-06T00:54:03;33.00;31.46;42.78;;
72805;Laerm;60920;48.748;19.142;2023-08-06T00:56:28;33.84;31.44;45.99;;
72805;Laerm;60920;48.748;19.142;2023-08-06T00:58:54;35.81;31.42;46.63;;
72805;Laerm;60920;48.748;19.142;2023-08-06T01:01:19;35.42;31.09;47.58;;
72805;Laerm;60920;48.748;19.142;2023-08-06T01:03:45;35.14;31.48;46.26;;
72805;Laerm;60920;48.748;19.142;2023-08-06T01:06:11;32.93;31.33;43.40;;
72805;Laerm;60920;48.748;19.142;2023-08-06T01:08:49;36.45;31.59;46.63;;
72805;Laerm;60920;48.748;19.142;2023-08-06T01:11:29;38.34;31.72;46.93;;
72805;Laerm;60920;48.748;19.142;2023-08-06T01:14:22;37.87;31.93;47.48;;
72805;Laerm;60920;48.748;19.142;2023-08-06T01:16:45;35.64;32.16;47.35;;
72805;Laerm;60920;48.748;19.142;2023-08-06T01:19:17;36.59;32.18;47.64;;
72805;Laerm;60920;48.748;19.142;2023-08-06T01:21:42;36.04;31.92;48.86;;
72805;Laerm;60920;48.748;19.142;2023-08-06T01:24:07;34.56;32.04;47.23;;
72805;Laerm;60920;48.748;19.142;2023-08-06T01:26:34;35.88;31.85;47.14;;
72805;Laerm;60920;48.748;19.142;2023-08-06T01:29:13;34.37;31.81;47.33;;
72805;Laerm;60920;48.748;19.142;2023-08-06T01:31:41;33.96;31.66;44.91;;
72805;Laerm;60920;48.748;19.142;2023-08-06T01:34:13;34.93;31.64;47.55;;
72805;Laerm;60920;48.748;19.142;2023-08-06T01:36:41;37.26;31.83;47.15;;
72805;Laerm;60920;48.748;19.142;2023-08-06T01:39:07;36.51;31.31;47.91;;
72805;Laerm;60920;48.748;19.142;2023-08-06T01:41:32;33.29;31.55;42.31;;
72805;Laerm;60920;48.748;19.142;2023-08-06T01:43:57;33.28;31.73;43.91;;
72805;Laerm;60920;48.748;19.142;2023-08-06T01:46:23;35.03;31.30;46.74;;
72805;Laerm;60920;48.748;19.142;2023-08-06T01:48:48;35.74;31.57;46.77;;
72805;Laerm;60920;48.748;19.142;2023-08-06T01:51:13;34.53;31.74;47.75;;
72805;Laerm;60920;48.748;19.142;2023-08-06T01:53:38;36.06;31.49;47.12;;
72805;Laerm;60920;48.748;19.142;2023-08-06T01:56:04;34.25;31.55;46.21;;
72805;Laerm;60920;48.748;19.142;2023-08-06T01:58:29;34.40;31.53;47.55;;
72805;Laerm;60920;48.748;19.142;2023-08-06T02:00:54;34.05;31.35;48.08;;
72805;Laerm;60920;48.748;19.142;2023-08-06T02:03:20;37.74;31.76;48.54;;
72805;Laerm;60920;48.748;19.142;2023-08-06T02:05:45;35.49;31.64;47.58;;
72805;Laerm;60920;48.748;19.142;2023-08-06T02:08:11;33.51;31.61;43.25;;
72805;Laerm;60920;48.748;19.142;2023-08-06T02:10:36;34.85;31.54;46.58;;
72805;Laerm;60920;48.748;19.142;2023-08-06T02:13:01;34.35;31.43;45.99;;
72805;Laerm;60920;48.748;19.142;2023-08-06T02:15:26;34.91;31.63;46.40;;
72805;Laerm;60920;48.748;19.142;2023-08-06T02:17:52;37.11;31.61;46.91;;
72805;Laerm;60920;48.748;19.142;2023-08-06T02:20:17;37.50;31.37;47.91;;
72805;Laerm;60920;48.748;19.142;2023-08-06T02:22:42;35.69;31.60;46.89;;
72805;Laerm;60920;48.748;19.142;2023-08-06T02:25:08;35.33;31.61;45.42;;
72805;Laerm;60920;48.748;19.142;2023-08-06T02:27:33;36.84;31.81;46.00;;
72805;Laerm;60920;48.748;19.142;2023-08-06T02:29:58;36.36;31.44;45.44;;
72805;Laerm;60920;48.748;19.142;2023-08-06T02:32:24;35.93;31.62;46.21;;
72805;Laerm;60920;48.748;19.142;2023-08-06T02:34:49;36.10;31.64;45.87;;
72805;Laerm;60920;48.748;19.142;2023-08-06T02:37:14;37.27;31.69;45.97;;
72805;Laerm;60920;48.748;19.142;2023-08-06T02:39:39;36.80;31.58;46.46;;
72805;Laerm;60920;48.748;19.142;2023-08-06T02:42:08;35.73;31.45;46.15;;
72805;Laerm;60920;48.748;19.142;2023-08-06T02:44:34;35.93;31.59;47.39;;
72805;Laerm;60920;48.748;19.142;2023-08-06T02:46:59;34.41;31.64;45.76;;
72805;Laerm;60920;48.748;19.142;2023-08-06T02:49:25;33.53;31.62;41.04;;
72805;Laerm;60920;48.748;19.142;2023-08-06T02:51:50;33.53;31.78;42.29;;
72805;Laerm;60920;48.748;19.142;2023-08-06T02:54:15;33.37;31.50;39.58;;
72805;Laerm;60920;48.748;19.142;2023-08-06T02:56:44;33.42;31.22;38.99;;
72805;Laerm;60920;48.748;19.142;2023-08-06T02:59:10;33.37;31.75;39.04;;
72805;Laerm;60920;48.748;19.142;2023-08-06T03:01:35;33.27;31.63;39.25;;
72805;Laerm;60920;48.748;19.142;2023-08-06T03:04:01;33.30;31.31;39.66;;
72805;Laerm;60920;48.748;19.142;2023-08-06T03:06:26;32.99;31.63;43.19;;
72805;Laerm;60920;48.748;19.142;2023-08-06T03:08:52;33.08;31.43;37.92;;
72805;Laerm;60920;48.748;19.142;2023-08-06T03:11:17;33.25;31.54;41.96;;
72805;Laerm;60920;48.748;19.142;2023-08-06T03:13:42;33.16;31.72;39.03;;
72805;Laerm;60920;48.748;19.142;2023-08-06T03:16:07;33.21;31.58;40.73;;
72805;Laerm;60920;48.748;19.142;2023-08-06T03:18:33;32.93;31.46;38.64;;
72805;Laerm;60920;48.748;19.142;2023-08-06T03:20:58;32.94;31.40;37.38;;
72805;Laerm;60920;48.748;19.142;2023-08-06T03:23:23;32.98;31.44;39.60;;
72805;Laerm;60920;48.748;19.142;2023-08-06T03:25:49;33.07;31.50;39.71;;
72805;Laerm;60920;48.748;19.142;2023-08-06T03:28:14;33.00;31.51;42.89;;
72805;Laerm;60920;48.748;19.142;2023-08-06T03:30:39;32.95;31.28;40.63;;
72805;Laerm;60920;48.748;19.142;2023-08-06T03:33:05;32.93;31.49;38.66;;
72805;Laerm;60920;48.748;19.142;2023-08-06T03:35:30;32.98;31.15;38.65;;
72805;Laerm;60920;48.748;19.142;2023-08-06T03:37:55;32.92;31.39;38.54;;
72805;Laerm;60920;48.748;19.142;2023-08-06T03:40:21;32.89;31.43;39.19;;
72805;Laerm;60920;48.748;19.142;2023-08-06T03:42:46;32.83;31.60;38.67;;
72805;Laerm;60920;48.748;19.142;2023-08-06T03:45:11;32.85;31.44;37.09;;
72805;Laerm;60920;48.748;19.142;2023-08-06T03:47:37;32.83;31.37;36.28;;
72805;Laerm;60920;48.748;19.142;2023-08-06T03:50:02;32.83;31.32;35.83;;
72805;Laerm;60920;48.748;19.142;2023-08-06T03:52:27;32.93;31.39;36.28;;
72805;Laerm;60920;48.748;19.142;2023-08-06T03:54:53;33.10;31.57;37.00;;
72805;Laerm;60920;48.748;19.142;2023-08-06T03:57:18;33.15;31.78;38.21;;
72805;Laerm;60920;48.748;19.142;2023-08-06T03:59:43;33.27;31.70;40.27;;
72805;Laerm;60920;48.748;19.142;2023-08-06T04:02:08;33.26;31.32;37.62;;
72805;Laerm;60920;48.748;19.142;2023-08-06T04:04:34;33.45;31.69;38.51;;
72805;Laerm;60920;48.748;19.142;2023-08-06T04:06:59;33.28;31.41;37.74;;
72805;Laerm;60920;48.748;19.142;2023-08-06T04:09:25;33.29;31.66;37.25;;
72805;Laerm;60920;48.748;19.142;2023-08-06T04:11:50;33.05;31.35;37.57;;
72805;Laerm;60920;48.748;19.142;2023-08-06T04:14:15;33.19;30.97;39.05;;
72805;Laerm;60920;48.748;19.142;2023-08-06T04:16:40;33.00;31.51;38.01;;
72805;Laerm;60920;48.748;19.142;2023-08-06T04:19:06;32.86;31.34;37.25;;
72805;Laerm;60920;48.748;19.142;2023-08-06T04:21:31;32.86;31.35;40.98;;
72805;Laerm;60920;48.748;19.142;2023-08-06T04:23:56;32.90;31.43;40.02;;
72805;Laerm;60920;48.748;19.142;2023-08-06T04:26:22;32.92;31.13;37.71;;
72805;Laerm;60920;48.748;19.142;2023-08-06T04:28:47;32.91;31.54;39.39;;
72805;Laerm;60920;48.748;19.142;2023-08-06T04:31:13;32.98;31.56;40.93;;
72805;Laerm;60920;48.748;19.142;2023-08-06T04:33:39;33.49;31.44;41.79;;
72805;Laerm;60920;48.748;19.142;2023-08-06T04:36:04;33.50;31.50;43.63;;
72805;Laerm;60920;48.748;19.142;2023-08-06T04:38:29;32.98;31.48;40.94;;
72805;Laerm;60920;48.748;19.142;2023-08-06T04:40:55;32.96;31.42;36.79;;
72805;Laerm;60920;48.748;19.142;2023-08-06T04:43:20;32.98;31.62;37.49;;
72805;Laerm;60920;48.748;19.142;2023-08-06T04:45:46;33.10;31.38;42.41;;
72805;Laerm;60920;48.748;19.142;2023-08-06T04:48:12;33.42;31.44;42.03;;
72805;Laerm;60920;48.748;19.142;2023-08-06T04:50:37;33.50;31.65;42.08;;
72805;Laerm;60920;48.748;19.142;2023-08-06T04:53:03;33.50;31.65;43.25;;
72805;Laerm;60920;48.748;19.142;2023-08-06T04:55:28;33.04;31.23;42.17;;
72805;Laerm;60920;48.748;19.142;2023-08-06T04:57:53;32.97;31.54;38.25;;
72805;Laerm;60920;48.748;19.142;2023-08-06T05:00:19;33.23;31.57;42.47;;
72805;Laerm;60920;48.748;19.142;2023-08-06T05:02:44;33.01;31.34;40.40;;
72805;Laerm;60920;48.748;19.142;2023-08-06T05:05:09;33.20;31.46;41.21;;
72805;Laerm;60920;48.748;19.142;2023-08-06T05:07:35;33.23;31.59;40.74;;
72805;Laerm;60920;48.748;19.142;2023-08-06T05:10:00;34.20;31.59;43.11;;
72805;Laerm;60920;48.748;19.142;2023-08-06T05:12:25;33.26;31.67;41.30;;
72805;Laerm;60920;48.748;19.142;2023-08-06T05:14:51;33.27;31.44;41.38;;
72805;Laerm;60920;48.748;19.142;2023-08-06T05:17:16;33.30;31.40;42.09;;
72805;Laerm;60920;48.748;19.142;2023-08-06T05:19:41;33.94;31.55;44.15;;
72805;Laerm;60920;48.748;19.142;2023-08-06T05:22:07;33.62;31.31;43.94;;
72805;Laerm;60920;48.748;19.142;2023-08-06T05:24:32;33.34;31.50;41.56;;
72805;Laerm;60920;48.748;19.142;2023-08-06T05:26:57;33.05;31.46;41.53;;
72805;Laerm;60920;48.748;19.142;2023-08-06T05:29:22;33.15;31.50;41.43;;
72805;Laerm;60920;48.748;19.142;2023-08-06T05:31:48;33.50;31.45;43.66;;
72805;Laerm;60920;48.748;19.142;2023-08-06T05:34:13;33.08;31.48;39.27;;
72805;Laerm;60920;48.748;19.142;2023-08-06T05:36:38;33.72;31.56;44.77;;
72805;Laerm;60920;48.748;19.142;2023-08-06T05:39:03;32.99;31.59;43.44;;
72805;Laerm;60920;48.748;19.142;2023-08-06T05:41:29;32.96;31.34;41.85;;
72805;Laerm;60920;48.748;19.142;2023-08-06T05:43:54;32.84;31.55;34.14;;
72805;Laerm;60920;48.748;19.142;2023-08-06T05:46:19;33.15;31.23;44.88;;
72805;Laerm;60920;48.748;19.142;2023-08-06T05:48:44;32.97;31.14;45.50;;
72805;Laerm;60920;48.748;19.142;2023-08-06T05:51:10;32.91;31.38;42.19;;
72805;Laerm;60920;48.748;19.142;2023-08-06T05:53:37;32.88;31.29;41.50;;
72805;Laerm;60920;48.748;19.142;2023-08-06T05:56:03;32.77;30.89;35.13;;
72805;Laerm;60920;48.748;19.142;2023-08-06T05:58:28;32.77;31.40;34.31;;
72805;Laerm;60920;48.748;19.142;2023-08-06T06:00:55;32.74;31.16;34.04;;
72805;Laerm;60920;48.748;19.142;2023-08-06T06:03:20;32.74;31.05;37.26;;
72805;Laerm;60920;48.748;19.142;2023-08-06T06:05:46;32.74;31.29;34.37;;
72805;Laerm;60920;48.748;19.142;2023-08-06T06:08:11;32.76;31.31;34.05;;
72805;Laerm;60920;48.748;19.142;2023-08-06T06:10:36;32.73;31.29;34.52;;
72805;Laerm;60920;48.748;19.142;2023-08-06T06:13:01;33.46;31.26;56.00;;
72805;Laerm;60920;48.748;19.142;2023-08-06T06:15:27;34.79;31.26;60.95;;
72805;Laerm;60920;48.748;19.142;2023-08-06T06:17:52;46.80;31.58;82.05;;
72805;Laerm;60920;48.748;19.142;2023-08-06T06:20:17;41.28;34.35;67.96;;
72805;Laerm;60920;48.748;19.142;2023-08-06T06:22:43;36.12;31.91;65.73;;
72805;Laerm;60920;48.748;19.142;2023-08-06T06:25:08;33.78;31.99;52.15;;
72805;Laerm;60920;48.748;19.142;2023-08-06T06:27:34;32.98;31.58;36.49;;
72805;Laerm;60920;48.748;19.142;2023-08-06T06:30:00;32.95;31.59;37.38;;
72805;Laerm;60920;48.748;19.142;2023-08-06T06:32:25;33.00;31.60;43.22;;
72805;Laerm;60920;48.748;19.142;2023-08-06T06:34:50;32.87;31.18;42.03;;
72805;Laerm;60920;48.748;19.142;2023-08-06T06:37:15;32.89;31.44;42.53;;
72805;Laerm;60920;48.748;19.142;2023-08-06T06:39:41;33.33;31.40;50.75;;
72805;Laerm;60920;48.748;19.142;2023-08-06T06:42:06;32.71;31.42;36.88;;
72805;Laerm;60920;48.748;19.142;2023-08-06T06:44:31;33.17;30.84;59.47;;
72805;Laerm;60920;48.748;19.142;2023-08-06T06:46:57;32.94;31.30;39.83;;
72805;Laerm;60920;48.748;19.142;2023-08-06T06:49:22;51.43;31.71;87.42;;
72805;Laerm;60920;48.748;19.142;2023-08-06T06:51:47;38.57;35.52;42.80;;
72805;Laerm;60920;48.748;19.142;2023-08-06T06:54:13;38.18;34.72;43.06;;
72805;Laerm;60920;48.748;19.142;2023-08-06T06:56:38;44.46;34.90;79.51;;
72805;Laerm;60920;48.748;19.142;2023-08-06T06:59:03;39.64;36.80;60.39;;
72805;Laerm;60920;48.748;19.142;2023-08-06T07:01:28;40.48;37.33;59.81;;
72805;Laerm;60920;48.748;19.142;2023-08-06T07:03:54;49.52;39.34;84.61;;
72805;Laerm;60920;48.748;19.142;2023-08-06T07:06:19;38.65;34.99;55.58;;
72805;Laerm;60920;48.748;19.142;2023-08-06T07:08:45;39.86;36.02;66.46;;
72805;Laerm;60920;48.748;19.142;2023-08-06T07:11:10;40.11;36.02;69.07;;
72805;Laerm;60920;48.748;19.142;2023-08-06T07:13:35;40.03;37.00;45.12;;
72805;Laerm;60920;48.748;19.142;2023-08-06T07:16:01;41.47;38.73;47.70;;
72805;Laerm;60920;48.748;19.142;2023-08-06T07:18:26;42.94;37.98;72.87;;
72805;Laerm;60920;48.748;19.142;2023-08-06T07:20:52;42.32;37.65;73.00;;
72805;Laerm;60920;48.748;19.142;2023-08-06T07:23:19;45.76;37.71;77.05;;
72805;Laerm;60920;48.748;19.142;2023-08-06T07:25:45;40.69;37.08;69.35;;
72805;Laerm;60920;48.748;19.142;2023-08-06T07:28:11;39.84;36.79;61.24;;
72805;Laerm;60920;48.748;19.142;2023-08-06T07:30:39;38.87;36.29;47.71;;
72805;Laerm;60920;48.748;19.142;2023-08-06T07:33:04;38.48;35.57;45.77;;
72805;Laerm;60920;48.748;19.142;2023-08-06T07:35:30;37.90;35.07;50.80;;
72805;Laerm;60920;48.748;19.142;2023-08-06T07:37:55;38.08;35.73;53.11;;
72805;Laerm;60920;48.748;19.142;2023-08-06T07:40:20;37.80;35.02;52.89;;
72805;Laerm;60920;48.748;19.142;2023-08-06T07:42:46;37.98;35.47;44.16;;
72805;Laerm;60920;48.748;19.142;2023-08-06T07:45:11;38.14;35.84;40.87;;
72805;Laerm;60920;48.748;19.142;2023-08-06T07:47:36;37.64;35.37;40.46;;
72805;Laerm;60920;48.748;19.142;2023-08-06T07:50:02;38.05;34.75;61.20;;
72805;Laerm;60920;48.748;19.142;2023-08-06T07:52:27;39.54;35.92;49.28;;
72805;Laerm;60920;48.748;19.142;2023-08-06T07:54:52;39.63;35.92;44.80;;
72805;Laerm;60920;48.748;19.142;2023-08-06T07:57:17;39.09;35.88;44.64;;
72805;Laerm;60920;48.748;19.142;2023-08-06T07:59:43;38.72;34.01;70.34;;
72805;Laerm;60920;48.748;19.142;2023-08-06T08:02:08;36.03;33.89;52.32;;
72805;Laerm;60920;48.748;19.142;2023-08-06T08:04:33;35.94;33.39;60.55;;
72805;Laerm;60920;48.748;19.142;2023-08-06T08:06:59;35.56;33.65;38.35;;
72805;Laerm;60920;48.748;19.142;2023-08-06T08:09:24;35.76;33.85;44.74;;
72805;Laerm;60920;48.748;19.142;2023-08-06T08:11:49;37.13;34.53;42.60;;
72805;Laerm;60920;48.748;19.142;2023-08-06T08:14:15;37.53;34.76;41.99;;
72805;Laerm;60920;48.748;19.142;2023-08-06T08:16:40;36.81;34.19;51.77;;
72805;Laerm;60920;48.748;19.142;2023-08-06T08:19:06;48.17;34.74;83.96;;
72805;Laerm;60920;48.748;19.142;2023-08-06T08:21:31;37.15;34.27;60.02;;
72805;Laerm;60920;48.748;19.142;2023-08-06T08:23:56;36.91;33.98;45.23;;
72805;Laerm;60920;48.748;19.142;2023-08-06T08:26:21;48.86;32.78;84.82;;
72805;Laerm;60920;48.748;19.142;2023-08-06T08:28:47;35.67;32.58;49.60;;
72805;Laerm;60920;48.748;19.142;2023-08-06T08:31:12;37.44;33.08;55.17;;
72805;Laerm;60920;48.748;19.142;2023-08-06T08:33:37;37.78;33.02;56.49;;
72805;Laerm;60920;48.748;19.142;2023-08-06T08:36:03;39.42;32.95;53.83;;
72805;Laerm;60920;48.748;19.142;2023-08-06T08:38:29;42.68;32.49;75.75;;
72805;Laerm;60920;48.748;19.142;2023-08-06T08:40:54;39.24;32.00;67.63;;
72805;Laerm;60920;48.748;19.142;2023-08-06T08:43:23;35.45;32.53;43.46;;
72805;Laerm;60920;48.748;19.142;2023-08-06T08:45:50;43.92;32.32;79.62;;
72805;Laerm;60920;48.748;19.142;2023-08-06T08:48:15;50.58;32.66;86.67;;
72805;Laerm;60920;48.748;19.142;2023-08-06T08:50:41;35.63;32.76;47.60;;
72805;Laerm;60920;48.748;19.142;2023-08-06T08:53:07;36.14;33.79;57.36;;
72805;Laerm;60920;48.748;19.142;2023-08-06T08:55:33;36.64;33.76;42.86;;
72805;Laerm;60920;48.748;19.142;2023-08-06T08:57:59;38.27;33.53;65.39;;
72805;Laerm;60920;48.748;19.142;2023-08-06T09:00:24;37.52;33.56;62.11;;
72805;Laerm;60920;48.748;19.142;2023-08-06T09:02:50;36.58;33.69;56.40;;
72805;Laerm;60920;48.748;19.142;2023-08-06T09:05:16;36.80;34.21;57.64;;
72805;Laerm;60920;48.748;19.142;2023-08-06T09:07:46;35.80;33.56;38.16;;
72805;Laerm;60920;48.748;19.142;2023-08-06T09:10:13;35.90;33.94;47.78;;
72805;Laerm;60920;48.748;19.142;2023-08-06T09:12:42;36.66;33.94;59.27;;
72805;Laerm;60920;48.748;19.142;2023-08-06T09:15:08;37.92;33.77;43.12;;
72805;Laerm;60920;48.748;19.142;2023-08-06T09:17:33;36.95;32.93;55.50;;
72805;Laerm;60920;48.748;19.142;2023-08-06T09:19:59;35.28;32.55;61.62;;
72805;Laerm;60920;48.748;19.142;2023-08-06T09:22:24;35.55;32.81;45.28;;
72805;Laerm;60920;48.748;19.142;2023-08-06T09:24:49;35.77;32.00;39.24;;
72805;Laerm;60920;48.748;19.142;2023-08-06T09:27:15;34.52;32.12;37.89;;
72805;Laerm;60920;48.748;19.142;2023-08-06T09:29:44;39.13;30.92;70.17;;
72805;Laerm;60920;48.748;19.142;2023-08-06T09:32:10;33.42;31.32;52.06;;
72805;Laerm;60920;48.748;19.142;2023-08-06T09:34:35;33.61;30.43;58.38;;
72805;Laerm;60920;48.748;19.142;2023-08-06T09:37:03;36.06;29.55;66.20;;
72805;Laerm;60920;48.748;19.142;2023-08-06T09:39:29;32.92;30.47;36.27;;
72805;Laerm;60920;48.748;19.142;2023-08-06T09:41:56;32.85;30.64;36.55;;
72805;Laerm;60920;48.748;19.142;2023-08-06T09:44:21;31.93;29.76;34.68;;
72805;Laerm;60920;48.748;19.142;2023-08-06T09:46:48;31.32;29.71;32.69;;
72805;Laerm;60920;48.748;19.142;2023-08-06T09:49:14;31.31;29.66;33.05;;
72805;Laerm;60920;48.748;19.142;2023-08-06T09:51:40;31.23;29.72;34.13;;
72805;Laerm;60920;48.748;19.142;2023-08-06T09:54:06;31.35;29.62;33.14;;
72805;Laerm;60920;48.748;19.142;2023-08-06T09:56:32;31.62;30.21;39.46;;
72805;Laerm;60920;48.748;19.142;2023-08-06T09:59:02;31.38;29.72;37.67;;
72805;Laerm;60920;48.748;19.142;2023-08-06T10:01:29;32.31;30.07;60.56;;
72805;Laerm;60920;48.748;19.142;2023-08-06T10:03:54;31.33;29.20;48.74;;
72805;Laerm;60920;48.748;19.142;2023-08-06T10:06:22;31.47;29.83;45.56;;
72805;Laerm;60920;48.748;19.142;2023-08-06T10:08:48;31.47;29.53;49.80;;
72805;Laerm;60920;48.748;19.142;2023-08-06T10:11:13;31.10;29.16;51.46;;
72805;Laerm;60920;48.748;19.142;2023-08-06T10:13:39;30.83;29.35;41.02;;
72805;Laerm;60920;48.748;19.142;2023-08-06T10:16:05;30.72;29.06;32.08;;
72805;Laerm;60920;48.748;19.142;2023-08-06T10:18:31;31.43;29.02;54.66;;
72805;Laerm;60920;48.748;19.142;2023-08-06T10:20:56;31.57;29.51;56.25;;
72805;Laerm;60920;48.748;19.142;2023-08-06T10:23:27;31.30;29.43;34.08;;
72805;Laerm;60920;48.748;19.142;2023-08-06T10:25:57;31.54;29.45;42.43;;
72805;Laerm;60920;48.748;19.142;2023-08-06T10:28:24;31.78;29.78;55.78;;
72805;Laerm;60920;48.748;19.142;2023-08-06T10:30:59;31.61;29.74;45.54;;
72805;Laerm;60920;48.748;19.142;2023-08-06T10:33:24;31.75;29.70;39.92;;
72805;Laerm;60920;48.748;19.142;2023-08-06T10:36:04;31.97;30.16;35.24;;
72805;Laerm;60920;48.748;19.142;2023-08-06T10:38:34;32.06;30.02;52.87;;
72805;Laerm;60920;48.748;19.142;2023-08-06T10:41:02;32.52;29.73;48.34;;
72805;Laerm;60920;48.748;19.142;2023-08-06T10:43:29;39.97;30.00;48.88;;
72805;Laerm;60920;48.748;19.142;2023-08-06T10:45:55;38.53;30.33;50.63;;
72805;Laerm;60920;48.748;19.142;2023-08-06T10:48:31;39.64;30.17;48.88;;
72805;Laerm;60920;48.748;19.142;2023-08-06T10:50:57;39.17;30.69;51.59;;
72805;Laerm;60920;48.748;19.142;2023-08-06T10:53:22;40.26;29.96;49.12;;
72805;Laerm;60920;48.748;19.142;2023-08-06T10:55:47;39.95;29.34;50.14;;
72805;Laerm;60920;48.748;19.142;2023-08-06T10:58:15;39.53;29.55;47.08;;
72805;Laerm;60920;48.748;19.142;2023-08-06T11:00:40;38.69;29.67;45.88;;
72805;Laerm;60920;48.748;19.142;2023-08-06T11:03:05;37.24;29.26;45.95;;
72805;Laerm;60920;48.748;19.142;2023-08-06T11:05:31;37.79;29.59;47.44;;
72805;Laerm;60920;48.748;19.142;2023-08-06T11:07:56;36.90;29.77;46.54;;
72805;Laerm;60920;48.748;19.142;2023-08-06T11:10:21;37.00;29.54;45.73;;
72805;Laerm;60920;48.748;19.142;2023-08-06T11:12:47;37.09;29.35;45.20;;
72805;Laerm;60920;48.748;19.142;2023-08-06T11:15:12;36.81;29.86;49.45;;
72805;Laerm;60920;48.748;19.142;2023-08-06T11:17:39;37.04;29.31;46.92;;
72805;Laerm;60920;48.748;19.142;2023-08-06T11:20:05;34.53;29.31;46.59;;
72805;Laerm;60920;48.748;19.142;2023-08-06T11:22:30;35.68;28.97;43.34;;
72805;Laerm;60920;48.748;19.142;2023-08-06T11:24:56;36.85;29.04;43.29;;
72805;Laerm;60920;48.748;19.142;2023-08-06T11:27:22;35.40;29.18;52.93;;
72805;Laerm;60920;48.748;19.142;2023-08-06T11:29:47;33.48;28.77;52.44;;
72805;Laerm;60920;48.748;19.142;2023-08-06T11:32:13;32.16;28.64;47.34;;
72805;Laerm;60920;48.748;19.142;2023-08-06T11:34:39;34.81;28.91;39.20;;
72805;Laerm;60920;48.748;19.142;2023-08-06T11:37:04;36.53;28.73;43.50;;
72805;Laerm;60920;48.748;19.142;2023-08-06T11:39:34;36.96;29.28;41.74;;
72805;Laerm;60920;48.748;19.142;2023-08-06T11:41:59;37.21;29.49;41.77;;
72805;Laerm;60920;48.748;19.142;2023-08-06T11:44:31;37.16;29.73;60.69;;
72805;Laerm;60920;48.748;19.142;2023-08-06T11:46:58;37.19;29.06;43.15;;
72805;Laerm;60920;48.748;19.142;2023-08-06T11:54:41;34.58;29.86;38.74;;
72805;Laerm;60920;48.748;19.142;2023-08-06T11:57:06;35.23;29.68;45.92;;
72805;Laerm;60920;48.748;19.142;2023-08-06T11:59:32;35.73;30.28;52.66;;
72805;Laerm;60920;48.748;19.142;2023-08-06T12:01:57;36.58;30.90;45.49;;
72805;Laerm;60920;48.748;19.142;2023-08-06T12:04:23;45.80;31.42;81.47;;
72805;Laerm;60920;48.748;19.142;2023-08-06T12:06:48;36.11;31.15;40.54;;
72805;Laerm;60920;48.748;19.142;2023-08-06T12:09:14;35.38;30.56;40.13;;
72805;Laerm;60920;48.748;19.142;2023-08-06T12:11:39;34.12;30.29;40.25;;
72805;Laerm;60920;48.748;19.142;2023-08-06T12:14:04;35.34;30.50;48.31;;
72805;Laerm;60920;48.748;19.142;2023-08-06T12:16:29;34.65;30.25;41.57;;
72805;Laerm;60920;48.748;19.142;2023-08-06T12:18:55;35.81;30.98;40.69;;
72805;Laerm;60920;48.748;19.142;2023-08-06T12:21:20;34.34;30.69;41.30;;
72805;Laerm;60920;48.748;19.142;2023-08-06T12:23:45;36.38;30.65;63.14;;
72805;Laerm;60920;48.748;19.142;2023-08-06T12:26:10;35.95;31.03;40.36;;
72805;Laerm;60920;48.748;19.142;2023-08-06T12:28:36;35.48;30.61;40.80;;
72805;Laerm;60920;48.748;19.142;2023-08-06T12:31:01;34.55;30.25;40.25;;
72805;Laerm;60920;48.748;19.142;2023-08-06T12:33:27;34.82;30.51;39.07;;
72805;Laerm;60920;48.748;19.142;2023-08-06T12:35:52;34.62;29.71;39.45;;
72805;Laerm;60920;48.748;19.142;2023-08-06T12:38:22;34.70;30.43;39.76;;
72805;Laerm;60920;48.748;19.142;2023-08-06T12:40:47;34.58;30.14;39.57;;
72805;Laerm;60920;48.748;19.142;2023-08-06T12:43:13;34.62;30.42;40.75;;
72805;Laerm;60920;48.748;19.142;2023-08-06T12:45:38;34.44;30.86;37.98;;
72805;Laerm;60920;48.748;19.142;2023-08-06T12:48:03;34.52;30.24;39.94;;
72805;Laerm;60920;48.748;19.142;2023-08-06T12:50:29;34.78;30.31;39.84;;
72805;Laerm;60920;48.748;19.142;2023-08-06T12:52:54;35.11;30.05;40.17;;
72805;Laerm;60920;48.748;19.142;2023-08-06T12:55:19;35.06;29.65;40.69;;
72805;Laerm;60920;48.748;19.142;2023-08-06T12:57:45;34.53;29.51;40.51;;
72805;Laerm;60920;48.748;19.142;2023-08-06T13:00:10;34.23;29.93;40.83;;
72805;Laerm;60920;48.748;19.142;2023-08-06T13:02:35;33.96;29.90;39.94;;
72805;Laerm;60920;48.748;19.142;2023-08-06T13:05:01;34.03;29.71;40.46;;
72805;Laerm;60920;48.748;19.142;2023-08-06T13:07:30;34.02;29.72;40.39;;
72805;Laerm;60920;48.748;19.142;2023-08-06T13:09:55;33.91;29.71;39.56;;
72805;Laerm;60920;48.748;19.142;2023-08-06T13:12:21;34.31;29.76;41.41;;
72805;Laerm;60920;48.748;19.142;2023-08-06T13:14:48;34.27;29.82;41.04;;
72805;Laerm;60920;48.748;19.142;2023-08-06T13:17:13;33.49;29.46;39.99;;
72805;Laerm;60920;48.748;19.142;2023-08-06T13:19:38;33.71;29.82;39.71;;
72805;Laerm;60920;48.748;19.142;2023-08-06T13:22:04;33.46;29.66;39.93;;
72805;Laerm;60920;48.748;19.142;2023-08-06T13:24:32;33.69;29.72;40.49;;
72805;Laerm;60920;48.748;19.142;2023-08-06T13:26:57;33.56;29.64;39.41;;
72805;Laerm;60920;48.748;19.142;2023-08-06T13:29:23;33.66;29.93;39.41;;